Ana Sayfa
METAR-TAF:

METAR-TAF

Havaalanları :

Koror, Babeldaob, Palau

Enlem: 07-22N, Boylam: 134-32E, yükseklik: 54 m

Güncel hava durumu gözlemi

Rapor saat 04:50 UTC de 1 saat ve 3 dakika önce yapıldı.
Rüzgar doğudan 6 kt
Sıcaklık 31°C
Nem 66%
Basınç 1012 hPa
Görüş mesafesi: 24.1 km
1600 ft yükseklikte parçalı bulutlu, Yükselen kümülüs.
12000 ft yükseklikte parçalı çok bulutlu
30000 ft yükseklikte parçalı çok bulutlu

METAR: PTRO 260450Z 08006KT 15SM SCT016TCU BKN120 BKN300 31/24 A2987 RMK TCU ALQDS

Saat: 14:53 (05:53 UTC)

Tahmin

Rapor saat 05:42 UTC de 11 dakika önce yapıldı.
Ayın 26'si saat 06 UTC'den ayın 27'si saat 06 UTC'ye kadar geçerli Tahmin
Rüzgar doğu/kuzeydoğudan 10 kt
Görüş mesafesi: 10 km
1600 ft yükseklikte parçalı bulutlu
12000 ft yükseklikte parçalı çok bulutlu
Civarda sağanaklar

TAF: PTRO 260542Z 2606/2706 07010KT P6SM VCSH SCT016 BKN120

4.000'den fazla havaalanı için hava durumu gözlemleri ve tahminleri (METAR ve TAF raporları).

Kullanılabilir istasyonlar harita üzerinde sarı ve kırmızı noktalarla gösterilir.

İstasyonun adını görmek için fareyi noktanın üzerinde gezdirin.

Sonrasında hava gözlem ve tahminlerini görmek için tıklayın.

Haritayı değiştirmek için: yaklaştırmak için siyah artı işaretli yeşil düğmeye ve uzaklaştırmak için de eksi işaretli düğmeye hızla tıklayın; bitişik haritalar için yeşil okları kullanın.


METAR-TAF: